Time;durP1;ratioP1;P1;durP2;ratioP2;P2;SDS_P1;SDS_P2;PMS_P1;PMS_P2;Temp;Humidity;BMP_temperature;BMP_pressure;BME280_temperature;BME280_humidity;BME280_pressure;Samples;Min_cycle;Max_cycle;Signal;HPM_P1;HPM_P2
2023/01/26 04:01:26;;;;;;;108.97;21.50;;;0.60;99.90;;;;;;6218801;22;20098;-79
2023/01/26 04:09:26;;;;;;;126.82;22.80;;;0.70;99.90;;;;;;6275942;22;20036;-79
2023/01/26 04:11:52;;;;;;;111.85;22.92;;;0.70;99.90;;;;;;6275988;22;20022;-77
2023/01/26 04:22:39;;;;;;;103.80;21.77;;;0.70;99.90;;;;;;6275846;22;20400;-82
2023/01/26 04:25:07;;;;;;;106.20;21.20;;;0.70;99.90;;;;;;6275893;22;20011;-80
2023/01/26 04:27:33;;;;;;;117.38;21.55;;;0.70;99.90;;;;;;6276954;22;20309;-77
2023/01/26 04:30:00;;;;;;;122.40;23.65;;;0.70;99.90;;;;;;6275741;22;20035;-78
2023/01/26 04:32:26;;;;;;;110.70;21.10;;;0.70;99.90;;;;;;6278162;22;20060;-77
2023/01/26 04:34:52;;;;;;;120.45;20.88;;;0.70;99.90;;;;;;6277387;22;20455;-78
2023/01/26 04:37:17;;;;;;;107.82;21.67;;;0.80;99.90;;;;;;6275531;22;20016;-80
2023/01/26 04:39:43;;;;;;;129.45;22.15;;;0.70;99.90;;;;;;6275790;22;20086;-78
2023/01/26 04:42:09;;;;;;;118.20;21.85;;;0.80;99.90;;;;;;6275287;22;20037;-79
2023/01/26 04:44:34;;;;;;;94.85;20.40;;;0.80;99.90;;;;;;6277302;22;20067;-81
2023/01/26 04:47:00;;;;;;;98.43;21.33;;;0.80;99.90;;;;;;6275484;22;20011;-78
2023/01/26 04:49:25;;;;;;;124.63;21.02;;;0.80;99.90;;;;;;6275896;22;20043;-80
2023/01/26 04:51:51;;;;;;;96.85;19.88;;;0.80;99.90;;;;;;6275785;22;20398;-80
2023/01/26 04:54:17;;;;;;;102.78;22.67;;;0.80;99.90;;;;;;6275489;22;20011;-78
2023/01/26 04:56:43;;;;;;;121.22;22.15;;;0.80;99.90;;;;;;6277303;22;20004;-82
2023/01/26 04:59:10;;;;;;;114.03;22.88;;;0.80;99.90;;;;;;6275728;22;20378;-77
2023/01/26 05:01:35;;;;;;;123.72;22.80;;;0.80;99.90;;;;;;6276981;22;20050;-77
2023/01/26 05:04:02;;;;;;;114.35;22.50;;;0.80;99.90;;;;;;6277477;22;20008;-81
2023/01/26 05:06:29;;;;;;;120.97;22.73;;;0.90;99.90;;;;;;6277626;22;20027;-79
2023/01/26 05:08:56;;;;;;;131.50;24.70;;;0.80;99.90;;;;;;6277327;22;20386;-79
2023/01/26 05:11:21;;;;;;;134.38;23.60;;;0.90;99.90;;;;;;6275109;22;20396;-78
2023/01/26 05:13:47;;;;;;;137.45;23.05;;;0.90;99.90;;;;;;6250005;22;20039;-81
2023/01/26 05:16:13;;;;;;;115.78;22.73;;;0.90;99.90;;;;;;6276857;22;20016;-77
2023/01/26 05:18:40;;;;;;;123.65;24.70;;;0.90;99.90;;;;;;6275153;22;20015;-80
2023/01/26 05:21:06;;;;;;;110.35;22.95;;;0.90;99.90;;;;;;6276728;22;20053;-76
2023/01/26 05:23:32;;;;;;;138.32;24.73;;;0.90;99.90;;;;;;6275306;22;20016;-79
2023/01/26 05:25:57;;;;;;;124.60;25.88;;;0.90;99.90;;;;;;6275363;22;20063;-77
2023/01/26 05:28:23;;;;;;;140.48;26.13;;;0.90;99.90;;;;;;6275488;22;20023;-77
2023/01/26 05:30:49;;;;;;;131.52;24.38;;;0.90;99.90;;;;;;6275209;22;20008;-78
2023/01/26 05:33:15;;;;;;;128.00;25.67;;;0.90;99.90;;;;;;6275219;22;20096;-78
2023/01/26 05:35:41;;;;;;;145.63;24.52;;;0.90;99.90;;;;;;6277519;22;20016;-79
2023/01/26 05:38:07;;;;;;;116.05;22.88;;;1.00;99.90;;;;;;6275302;22;20015;-79
2023/01/26 05:40:33;;;;;;;128.45;23.13;;;1.00;99.90;;;;;;6275186;22;20026;-76
2023/01/26 05:42:58;;;;;;;143.70;25.75;;;1.00;99.90;;;;;;6274689;22;20012;-81
2023/01/26 05:45:24;;;;;;;171.90;26.23;;;1.00;99.90;;;;;;6275622;22;20019;-77
2023/01/26 05:47:50;;;;;;;144.25;23.35;;;1.00;99.90;;;;;;6275339;22;20468;-79
2023/01/26 05:50:16;;;;;;;154.23;26.02;;;1.00;99.90;;;;;;6275199;22;20104;-79
2023/01/26 05:52:42;;;;;;;162.00;26.40;;;1.00;99.90;;;;;;6275118;22;20027;-78
2023/01/26 05:55:08;;;;;;;167.20;26.38;;;1.00;99.90;;;;;;6276758;22;20088;-78
2023/01/26 05:57:35;;;;;;;171.35;25.35;;;1.10;99.90;;;;;;6275921;22;20043;-80
2023/01/26 06:00:01;;;;;;;151.63;25.45;;;1.10;99.90;;;;;;6274872;22;20448;-77
2023/01/26 06:02:27;;;;;;;141.10;24.42;;;1.10;99.90;;;;;;6274950;22;20463;-80
2023/01/26 06:04:53;;;;;;;163.05;28.10;;;1.10;99.90;;;;;;6251139;22;20090;-79
2023/01/26 06:07:18;;;;;;;163.55;26.00;;;1.10;99.90;;;;;;6276856;22;20012;-76
2023/01/26 06:09:44;;;;;;;156.95;25.25;;;1.10;99.90;;;;;;6279479;22;20019;-77
2023/01/26 06:12:15;;;;;;;183.80;26.52;;;1.10;99.90;;;;;;6279216;22;20065;-78
2023/01/26 06:14:41;;;;;;;210.88;27.67;;;1.10;99.90;;;;;;6251877;22;20012;-79
2023/01/26 06:17:07;;;;;;;177.20;26.90;;;1.10;99.90;;;;;;6251724;22;20054;-81
2023/01/26 06:19:32;;;;;;;197.55;27.33;;;1.10;99.90;;;;;;6278373;22;20050;-77
2023/01/26 06:21:58;;;;;;;190.82;27.88;;;1.10;99.90;;;;;;6252222;22;20421;-77
2023/01/26 06:24:24;;;;;;;195.48;29.45;;;1.20;99.90;;;;;;6278970;22;20011;-77
2023/01/26 06:26:49;;;;;;;175.10;26.38;;;1.20;99.90;;;;;;6279247;22;20010;-76
2023/01/26 06:29:15;;;;;;;182.38;26.98;;;1.20;99.90;;;;;;6278812;22;20063;-78
2023/01/26 06:31:41;;;;;;;191.68;30.10;;;1.20;99.90;;;;;;6276422;22;20091;-78
2023/01/26 06:34:07;;;;;;;167.18;26.75;;;1.20;99.90;;;;;;6278584;22;20019;-78
2023/01/26 06:36:33;;;;;;;152.45;27.35;;;1.20;99.90;;;;;;6276530;22;20053;-78
2023/01/26 06:38:59;;;;;;;161.75;27.50;;;1.20;99.90;;;;;;6278510;22;20468;-79
2023/01/26 06:41:25;;;;;;;177.95;28.65;;;1.30;99.90;;;;;;6278303;22;20016;-77
2023/01/26 06:43:51;;;;;;;186.15;27.58;;;1.30;99.90;;;;;;6276578;22;20012;-77
2023/01/26 06:46:18;;;;;;;182.55;28.05;;;1.30;99.90;;;;;;6276789;22;20012;-78
2023/01/26 06:48:46;;;;;;;194.50;30.45;;;1.30;99.90;;;;;;6277158;22;20038;-81
2023/01/26 06:51:15;;;;;;;189.75;28.98;;;1.30;99.90;;;;;;6276746;22;20081;-79
2023/01/26 06:54:11;;;;;;;196.65;27.52;;;1.30;99.90;;;;;;6251188;22;20460;-80
2023/01/26 06:56:37;;;;;;;171.13;28.10;;;1.40;99.90;;;;;;6274338;22;20016;-79
2023/01/26 06:59:04;;;;;;;179.80;28.42;;;1.40;99.90;;;;;;6276636;22;20044;-79
2023/01/26 07:01:33;;;;;;;181.05;27.10;;;1.40;99.90;;;;;;6276504;22;20437;-80
2023/01/26 07:03:59;;;;;;;225.10;29.27;;;1.50;99.90;;;;;;6276287;22;20011;-80
2023/01/26 07:06:24;;;;;;;185.55;27.65;;;1.40;99.90;;;;;;6276373;22;20081;-76
2023/01/26 07:08:50;;;;;;;172.18;25.23;;;1.50;99.90;;;;;;6276167;22;20018;-79
2023/01/26 07:11:16;;;;;;;174.88;27.10;;;1.50;99.90;;;;;;6276338;22;20019;-80
2023/01/26 07:13:42;;;;;;;173.43;27.38;;;1.60;99.90;;;;;;6278070;22;20017;-79
2023/01/26 07:16:10;;;;;;;191.18;26.17;;;1.60;99.90;;;;;;6275666;22;20441;-78
2023/01/26 07:18:36;;;;;;;195.07;27.23;;;1.70;99.90;;;;;;6276276;22;20015;-78
2023/01/26 07:21:09;;;;;;;144.90;23.63;;;1.70;99.90;;;;;;6250846;22;20107;-80
2023/01/26 07:23:34;;;;;;;202.10;30.75;;;1.80;99.90;;;;;;6276510;22;20353;-79
2023/01/26 07:26:00;;;;;;;186.25;33.30;;;1.70;99.90;;;;;;6276416;22;20008;-76
2023/01/26 07:28:26;;;;;;;189.25;28.27;;;1.80;99.90;;;;;;6276227;22;20056;-78
2023/01/26 07:30:52;;;;;;;173.48;27.13;;;1.80;99.90;;;;;;6277690;22;20011;-77
2023/01/26 07:33:18;;;;;;;179.48;25.65;;;1.80;99.90;;;;;;6275956;22;20016;-77
2023/01/26 07:35:44;;;;;;;156.02;27.20;;;1.80;99.90;;;;;;6276242;22;20035;-75
2023/01/26 07:38:09;;;;;;;165.65;25.30;;;1.90;99.90;;;;;;6276186;22;20441;-75
2023/01/26 07:40:38;;;;;;;138.30;24.48;;;1.90;99.90;;;;;;6276175;22;20011;-78
2023/01/26 07:43:04;;;;;;;153.82;25.67;;;2.00;99.90;;;;;;6277739;22;20091;-76
2023/01/26 07:45:30;;;;;;;176.10;25.02;;;2.00;99.90;;;;;;6278193;22;20046;-77
2023/01/26 07:47:56;;;;;;;135.00;21.73;;;2.00;99.90;;;;;;6276418;22;20016;-76
2023/01/26 07:50:24;;;;;;;128.98;21.98;;;2.00;99.90;;;;;;6277867;22;20014;-77
2023/01/26 07:52:51;;;;;;;159.65;22.30;;;2.10;99.90;;;;;;6275748;22;20018;-77
2023/01/26 07:55:24;;;;;;;120.78;21.27;;;2.10;99.90;;;;;;6277536;22;20011;-78
2023/01/26 07:57:50;;;;;;;146.40;22.48;;;2.20;99.90;;;;;;6276070;22;20047;-79
2023/01/26 08:00:17;;;;;;;162.68;22.60;;;2.20;99.90;;;;;;6275840;22;20042;-77
2023/01/26 08:02:42;;;;;;;154.40;22.27;;;2.20;99.90;;;;;;6275303;22;20011;-76
2023/01/26 08:05:09;;;;;;;164.43;22.02;;;2.20;99.90;;;;;;6278052;22;20010;-78
2023/01/26 08:07:34;;;;;;;143.10;23.27;;;2.20;99.90;;;;;;6276336;22;20014;-77
2023/01/26 08:10:00;;;;;;;158.27;24.48;;;2.20;99.90;;;;;;6276010;22;20403;-77
2023/01/26 08:12:26;;;;;;;133.35;18.95;;;2.20;99.90;;;;;;6278357;22;20468;-78
2023/01/26 08:14:51;;;;;;;131.60;19.40;;;2.20;99.90;;;;;;6278059;22;20430;-78
2023/01/26 08:17:17;;;;;;;116.00;18.80;;;2.20;99.90;;;;;;6277952;22;20012;-76
2023/01/26 08:19:44;;;;;;;129.98;22.13;;;2.20;99.90;;;;;;6277860;22;20329;-76
2023/01/26 08:22:09;;;;;;;163.90;23.35;;;2.20;99.90;;;;;;6275961;22;20115;-75
2023/01/26 08:24:35;;;;;;;123.43;18.27;;;2.20;99.90;;;;;;6278132;22;20445;-73
2023/01/26 08:27:03;;;;;;;122.82;18.45;;;2.20;99.90;;;;;;6275862;22;20329;-77
2023/01/26 08:29:28;;;;;;;138.52;18.70;;;2.20;99.90;;;;;;6278028;22;20014;-76
2023/01/26 08:31:54;;;;;;;119.20;20.08;;;2.20;99.90;;;;;;6277359;22;20038;-77
2023/01/26 08:34:21;;;;;;;114.15;18.73;;;2.20;99.90;;;;;;6275961;22;20012;-76
2023/01/26 08:36:47;;;;;;;97.88;17.75;;;2.20;99.90;;;;;;6250299;22;20011;-76
2023/01/26 08:39:13;;;;;;;92.80;14.63;;;2.20;99.90;;;;;;6250292;22;20019;-77
2023/01/26 08:41:38;;;;;;;82.30;14.90;;;2.20;99.90;;;;;;6277416;22;20073;-78
2023/01/26 08:44:05;;;;;;;100.63;15.77;;;2.30;99.90;;;;;;6277727;22;20368;-77
2023/01/26 08:46:31;;;;;;;87.65;13.63;;;2.30;99.90;;;;;;6275387;22;20019;-75
2023/01/26 08:48:57;;;;;;;93.93;14.20;;;2.30;99.90;;;;;;6275415;22;20015;-77
2023/01/26 08:51:23;;;;;;;65.88;10.63;;;2.40;99.90;;;;;;6275060;22;20012;-78
2023/01/26 08:53:48;;;;;;;75.60;11.02;;;2.50;99.90;;;;;;6276064;22;20019;-79
2023/01/26 08:56:14;;;;;;;76.75;11.00;;;2.50;99.90;;;;;;6277592;22;20012;-79
2023/01/26 08:58:40;;;;;;;69.80;10.07;;;2.60;99.90;;;;;;6275596;22;20054;-76
2023/01/26 09:01:09;;;;;;;61.22;9.48;;;2.60;99.90;;;;;;6275447;22;20069;-79
2023/01/26 09:03:35;;;;;;;56.03;8.00;;;2.70;99.90;;;;;;6275276;22;20449;-75
2023/01/26 09:06:03;;;;;;;62.13;9.32;;;2.80;99.90;;;;;;6277547;22;20011;-78
2023/01/26 09:08:29;;;;;;;71.38;9.55;;;3.00;99.90;;;;;;6275538;22;20338;-78
2023/01/26 09:10:55;;;;;;;56.10;8.00;;;3.10;99.90;;;;;;6275187;22;20012;-80
2023/01/26 09:13:20;;;;;;;61.42;7.80;;;3.30;99.90;;;;;;6275280;22;20024;-77
2023/01/26 09:15:46;;;;;;;53.67;7.68;;;3.40;99.90;;;;;;6275378;22;20525;-75
2023/01/26 09:18:12;;;;;;;41.38;6.43;;;3.60;99.90;;;;;;6249215;22;20012;-75
2023/01/26 09:20:38;;;;;;;55.70;8.20;;;3.80;99.90;;;;;;6277032;22;20008;-76
2023/01/26 09:23:04;;;;;;;49.38;7.32;;;4.00;99.90;;;;;;6275232;22;20463;-77
2023/01/26 09:25:29;;;;;;;48.88;6.97;;;4.10;99.90;;;;;;6277457;22;20027;-77
2023/01/26 09:27:56;;;;;;;43.00;5.75;;;4.20;99.90;;;;;;6277377;22;20034;-76
2023/01/26 09:30:23;;;;;;;60.15;6.38;;;4.20;99.90;;;;;;6277148;22;20008;-78
2023/01/26 09:32:49;;;;;;;49.13;5.85;;;4.30;99.90;;;;;;6277447;22;20015;-76
2023/01/26 09:35:15;;;;;;;90.20;25.15;;;4.40;99.90;;;;;;6275638;22;20024;-77
2023/01/26 09:37:44;;;;;;;59.35;8.80;;;4.40;99.90;;;;;;6277303;22;20448;-77
2023/01/26 09:40:22;;;;;;;44.13;5.38;;;4.50;99.90;;;;;;6277037;22;20016;-77
2023/01/26 09:43:17;;;;;;;54.10;7.80;;;4.60;99.90;;;;;;6277982;22;20463;-74
2023/01/26 09:46:13;;;;;;;38.92;4.97;;;4.60;99.90;;;;;;6277550;22;20012;-75
2023/01/26 09:49:06;;;;;;;45.40;4.97;;;4.70;99.90;;;;;;6277434;22;20011;-78
2023/01/26 09:51:34;;;;;;;46.47;5.55;;;4.80;99.90;;;;;;6277264;22;20053;-77
2023/01/26 09:54:11;;;;;;;34.78;4.60;;;4.80;99.90;;;;;;6279360;22;20011;-78
2023/01/26 09:56:38;;;;;;;47.90;5.35;;;4.90;99.90;;;;;;6277219;22;20038;-76
2023/01/26 09:59:18;;;;;;;39.55;5.32;;;5.00;99.90;;;;;;6277323;22;20019;-78
2023/01/26 10:02:15;;;;;;;46.83;4.53;;;5.10;99.90;;;;;;6251370;22;20016;-76
2023/01/26 10:04:42;;;;;;;;;;;5.30;99.90;;;;;;6277741;22;20066;-78
2023/01/26 10:07:13;;;;;;;34.92;4.88;;;5.40;99.90;;;;;;6276942;22;19911;-76
2023/01/26 10:09:42;;;;;;;41.25;5.50;;;5.50;99.90;;;;;;6276505;22;20077;-77
2023/01/26 10:12:15;;;;;;;44.03;4.40;;;5.70;99.90;;;;;;6277000;22;20011;-77
2023/01/26 10:15:00;;;;;;;33.42;3.65;;;5.80;99.90;;;;;;6277203;22;20008;-77
2023/01/26 10:17:41;;;;;;;35.33;4.10;;;6.00;99.90;;;;;;6252886;22;20018;-76
2023/01/26 10:20:28;;;;;;;35.72;4.18;;;6.10;99.90;;;;;;6251488;22;20019;-78
2023/01/26 10:23:05;;;;;;;37.65;4.28;;;6.30;99.90;;;;;;6277209;22;20026;-76
2023/01/26 10:25:36;;;;;;;30.00;3.88;;;6.40;99.90;;;;;;6277161;22;20011;-76
2023/01/26 10:28:27;;;;;;;35.97;4.40;;;6.60;99.90;;;;;;6279460;22;20322;-76
2023/01/26 10:30:53;;;;;;;27.95;4.13;;;6.70;99.90;;;;;;6278003;22;20014;-77
2023/01/26 10:33:29;;;;;;;30.42;3.47;;;6.90;99.90;;;;;;6251910;22;20047;-76
2023/01/26 10:35:55;;;;;;;30.17;3.15;;;6.90;99.90;;;;;;6277250;22;20050;-75
2023/01/26 10:38:32;;;;;;;23.65;3.58;;;7.00;99.90;;;;;;6278801;22;20012;-78
2023/01/26 10:41:04;;;;;;;40.28;4.68;;;7.20;99.90;;;;;;6276876;22;20019;-78
2023/01/26 10:43:56;;;;;;;29.85;3.50;;;7.20;99.90;;;;;;6277139;22;20015;-76
2023/01/26 10:46:32;;;;;;;23.52;3.55;;;7.30;99.90;;;;;;6270089;22;20380;-78
2023/01/26 10:49:13;;;;;;;30.98;4.30;;;7.30;99.90;;;;;;6278926;22;20065;-76
2023/01/26 10:51:45;;;;;;;32.33;4.15;;;7.50;99.90;;;;;;6276816;22;20014;-77
2023/01/26 10:54:26;;;;;;;27.85;4.03;;;7.60;99.90;;;;;;6279094;22;20052;-78
2023/01/26 10:57:02;;;;;;;29.45;4.18;;;7.70;99.90;;;;;;6276943;22;20069;-78
2023/01/26 10:59:38;;;;;;;28.77;4.20;;;7.80;99.90;;;;;;6276889;22;20012;-77
2023/01/26 11:02:16;;;;;;;37.83;6.53;;;7.90;99.90;;;;;;6276454;22;20026;-74
2023/01/26 11:05:06;;;;;;;26.13;3.40;;;8.00;99.90;;;;;;6276743;22;20091;-77
2023/01/26 11:07:40;;;;;;;24.15;2.95;;;8.10;99.90;;;;;;6251266;22;20453;-76
2023/01/26 11:10:21;;;;;;;21.30;3.25;;;8.20;99.90;;;;;;6251861;22;20012;-76
2023/01/26 11:12:47;;;;;;;19.38;2.38;;;8.30;99.90;;;;;;6278558;22;20429;-75
2023/01/26 11:15:26;;;;;;;19.33;3.08;;;8.30;99.90;;;;;;6276593;22;20051;-77
2023/01/26 11:18:03;;;;;;;23.42;3.90;;;8.50;99.90;;;;;;6276566;22;20020;-77
2023/01/26 11:20:38;;;;;;;19.38;3.10;;;8.60;99.90;;;;;;6276635;22;20015;-75
2023/01/26 11:23:25;;;;;;;15.40;1.77;;;8.70;99.90;;;;;;6250816;22;20088;-76
2023/01/26 11:25:57;;;;;;;20.55;2.50;;;8.70;99.90;;;;;;6276370;22;20333;-75
2023/01/26 11:28:41;;;;;;;19.98;2.78;;;8.80;99.90;;;;;;6276686;22;20019;-75
2023/01/26 11:31:42;;;;;;;18.75;2.50;;;8.70;99.90;;;;;;6275705;22;20092;-77
2023/01/26 11:34:27;;;;;;;15.23;2.15;;;8.60;99.90;;;;;;6256171;22;20400;-75
2023/01/26 11:37:29;;;;;;;20.48;2.53;;;8.60;99.90;;;;;;6278394;22;20076;-77
2023/01/26 11:40:18;;;;;;;17.10;2.85;;;8.60;99.90;;;;;;6250581;22;20348;-75
2023/01/26 11:43:07;;;;;;;18.58;2.72;;;8.70;99.90;;;;;;6276296;22;20315;-77
2023/01/26 11:45:51;;;;;;;17.35;2.17;;;8.90;99.90;;;;;;6278274;22;20008;-77
2023/01/26 11:48:39;;;;;;;17.30;1.80;;;9.30;99.90;;;;;;6276389;22;20004;-77
2023/01/26 11:51:16;;;;;;;21.45;2.78;;;9.50;99.90;;;;;;6278445;22;20012;-75
2023/01/26 11:54:13;;;;;;;21.63;2.97;;;9.40;99.90;;;;;;6276308;22;20016;-77
2023/01/26 11:56:48;;;;;;;20.92;2.42;;;9.10;99.90;;;;;;6276078;22;20043;-75
2023/01/26 11:59:27;;;;;;;18.17;2.67;;;8.90;99.90;;;;;;6278602;22;20046;-78
2023/01/26 12:01:57;;;;;;;18.63;3.55;;;8.70;99.90;;;;;;6276229;22;20011;-76
2023/01/26 12:04:23;;;;;;;13.48;2.13;;;8.60;99.90;;;;;;6280177;22;20027;-75
2023/01/26 12:07:03;;;;;;;13.57;2.53;;;8.70;99.90;;;;;;6251141;22;20008;-76
2023/01/26 12:09:41;;;;;;;16.40;2.72;;;8.70;99.90;;;;;;6283947;22;20008;-72
2023/01/26 12:12:20;;;;;;;21.25;2.67;;;8.70;99.90;;;;;;6288071;22;20424;-74
2023/01/26 12:15:00;;;;;;;12.05;2.00;;;8.70;99.90;;;;;;6279333;22;20019;-76
2023/01/26 12:17:50;;;;;;;13.55;1.73;;;8.70;99.90;;;;;;6276364;22;20015;-76
2023/01/26 12:20:33;;;;;;;13.40;1.67;;;8.90;99.90;;;;;;6277220;22;20337;-75
2023/01/26 12:23:04;;;;;;;21.33;2.58;;;9.10;99.90;;;;;;6275247;22;20016;-78
2023/01/26 12:25:46;;;;;;;11.38;2.05;;;9.30;99.90;;;;;;6275502;22;20015;-77
2023/01/26 12:28:27;;;;;;;11.30;1.95;;;9.50;99.90;;;;;;6275444;22;20015;-74
2023/01/26 12:31:18;;;;;;;10.90;2.03;;;9.50;99.90;;;;;;6275270;22;20019;-76
2023/01/26 12:33:46;;;;;;;19.60;2.42;;;9.50;99.90;;;;;;6275230;22;20023;-76
2023/01/26 12:36:45;;;;;;;15.80;2.35;;;9.30;99.90;;;;;;6275398;22;20087;-78
2023/01/26 12:39:12;;;;;;;38.50;3.97;;;9.30;99.90;;;;;;6275691;22;20015;-77
2023/01/26 12:41:59;;;;;;;12.75;1.88;;;9.10;99.90;;;;;;6275934;22;20016;-77
2023/01/26 12:44:41;;;;;;;14.38;2.35;;;8.90;99.90;;;;;;6275604;22;20015;-79
2023/01/26 12:47:09;;;;;;;20.15;2.58;;;8.80;99.90;;;;;;6275798;22;20091;-80
2023/01/26 12:49:55;;;;;;;10.20;1.67;;;8.60;99.90;;;;;;6250295;22;20015;-78
2023/01/26 12:52:36;;;;;;;15.15;2.40;;;8.50;99.90;;;;;;6249351;22;20509;-77
2023/01/26 12:55:21;;;;;;;11.68;1.48;;;8.50;99.90;;;;;;6277336;22;20012;-77
2023/01/26 12:57:58;;;;;;;12.90;1.67;;;8.50;99.90;;;;;;6275735;22;20008;-79
2023/01/26 13:00:29;;;;;;;23.48;2.60;;;8.50;99.90;;;;;;6249689;22;20076;-80
2023/01/26 13:03:03;;;;;;;17.15;2.38;;;8.40;99.90;;;;;;6275475;22;20022;-80
2023/01/26 13:05:32;;;;;;;11.13;1.73;;;8.40;99.90;;;;;;6277255;22;20016;-78
2023/01/26 13:08:18;;;;;;;18.70;2.72;;;8.30;99.90;;;;;;6275353;22;20015;-78
2023/01/26 13:10:48;;;;;;;22.98;2.95;;;8.30;99.90;;;;;;6275155;22;20453;-77
2023/01/26 13:13:16;;;;;;;18.17;2.75;;;8.20;99.90;;;;;;6275059;22;20022;-80
2023/01/26 13:15:42;;;;;;;17.90;1.67;;;8.10;99.90;;;;;;6275339;22;20322;-79
2023/01/26 13:18:16;;;;;;;8.30;1.20;;;8.00;99.90;;;;;;6275378;22;20012;-80
2023/01/26 13:20:45;;;;;;;11.38;1.70;;;8.00;99.90;;;;;;6275134;22;20390;-81
2023/01/26 13:23:40;;;;;;;7.82;1.23;;;7.90;99.90;;;;;;6249615;22;20526;-80
2023/01/26 13:26:30;;;;;;;13.10;1.85;;;7.90;99.90;;;;;;6275441;22;20019;-77
2023/01/26 13:29:27;;;;;;;12.05;2.03;;;7.90;99.90;;;;;;6275405;22;20015;-80
2023/01/26 13:31:58;;;;;;;11.27;2.08;;;7.90;99.90;;;;;;6275521;22;20034;-78
2023/01/26 13:34:38;;;;;;;12.43;1.75;;;8.00;99.90;;;;;;6275124;22;20493;-77
2023/01/26 13:37:20;;;;;;;14.02;1.73;;;8.00;99.90;;;;;;6275461;22;20020;-78
2023/01/26 13:39:53;;;;;;;16.33;2.75;;;8.00;99.90;;;;;;6249657;22;20093;-78
2023/01/26 13:42:24;;;;;;;15.82;1.83;;;7.90;99.90;;;;;;6276572;22;20011;-77
2023/01/26 13:45:00;;;;;;;13.82;1.60;;;8.00;99.90;;;;;;6275633;22;20012;-80
2023/01/26 13:47:37;;;;;;;16.70;2.28;;;8.00;99.90;;;;;;6275465;22;20019;-80
2023/01/26 13:50:23;;;;;;;11.48;2.08;;;7.90;99.90;;;;;;6275431;22;20012;-79
2023/01/26 13:52:49;;;;;;;14.88;2.40;;;7.90;99.90;;;;;;6224235;22;20020;-78
2023/01/26 13:55:23;;;;;;;13.45;1.58;;;7.90;99.90;;;;;;6275002;22;20020;-80
2023/01/26 13:58:08;;;;;;;12.23;2.22;;;7.90;99.90;;;;;;6249351;22;20012;-81
2023/01/26 14:00:34;;;;;;;10.77;1.67;;;7.80;99.90;;;;;;6275626;22;20073;-81
2023/01/26 14:02:59;;;;;;;13.55;1.35;;;7.80;99.90;;;;;;6274902;22;20266;-81
2023/01/26 14:05:25;;;;;;;12.07;1.50;;;7.80;99.90;;;;;;6277156;22;20007;-78
2023/01/26 14:07:51;;;;;;;12.02;1.52;;;7.70;99.90;;;;;;6275267;22;20012;-77
2023/01/26 14:10:25;;;;;;;8.52;1.02;;;7.70;99.90;;;;;;6277197;22;20015;-77
2023/01/26 14:12:56;;;;;;;11.05;1.15;;;7.70;99.90;;;;;;6275402;22;20118;-77
2023/01/26 14:15:23;;;;;;;8.15;1.20;;;7.60;99.90;;;;;;6275271;22;20016;-78
2023/01/26 14:18:00;;;;;;;7.70;1.40;;;7.60;99.90;;;;;;6275258;22;20018;-81
2023/01/26 14:20:32;;;;;;;10.85;1.52;;;7.60;99.90;;;;;;6276724;22;20086;-82
2023/01/26 14:23:18;;;;;;;10.13;1.95;;;7.60;99.90;;;;;;6274667;22;20016;-78
2023/01/26 14:25:57;;;;;;;10.53;1.40;;;7.60;99.90;;;;;;6277121;22;20046;-78
2023/01/26 14:28:27;;;;;;;11.15;1.30;;;7.60;99.90;;;;;;6278768;22;20061;-77
2023/01/26 14:31:02;;;;;;;7.80;1.27;;;7.50;99.90;;;;;;6279298;22;20070;-77
2023/01/26 14:33:28;;;;;;;10.23;1.30;;;7.50;99.90;;;;;;6277035;22;20015;-77
2023/01/26 14:36:00;;;;;;;8.65;1.55;;;7.50;99.90;;;;;;6276905;22;20246;-78
2023/01/26 14:38:38;;;;;;;11.48;1.23;;;7.50;99.90;;;;;;6277024;22;20396;-78
2023/01/26 14:41:11;;;;;;;17.73;2.47;;;7.40;99.90;;;;;;6277531;22;20091;-79
2023/01/26 14:43:36;;;;;;;14.55;1.67;;;7.40;99.90;;;;;;6277185;22;20023;-79
2023/01/26 14:46:08;;;;;;;13.68;1.52;;;7.40;99.90;;;;;;6277749;22;20008;-77
2023/01/26 14:48:49;;;;;;;17.65;1.80;;;7.30;99.90;;;;;;6226510;22;20039;-76
2023/01/26 14:51:21;;;;;;;15.50;1.50;;;7.30;99.90;;;;;;6278756;22;20060;-77
2023/01/26 14:54:10;;;;;;;13.10;2.35;;;7.30;99.90;;;;;;6276931;22;20027;-79
2023/01/26 14:56:38;;;;;;;11.93;1.58;;;7.20;99.90;;;;;;6278479;22;20081;-76
2023/01/26 14:59:06;;;;;;;12.98;1.60;;;7.20;99.90;;;;;;6278809;22;20020;-76
2023/01/26 15:01:32;;;;;;;12.23;1.70;;;7.20;99.90;;;;;;6278354;22;20087;-77
2023/01/26 15:04:05;;;;;;;10.40;1.65;;;7.20;99.90;;;;;;6276923;22;20012;-79
2023/01/26 15:06:31;;;;;;;13.43;1.85;;;7.20;99.90;;;;;;6278374;22;20018;-78
2023/01/26 15:09:20;;;;;;;13.93;1.85;;;7.20;99.90;;;;;;6276491;22;20008;-78
2023/01/26 15:12:15;;;;;;;17.88;2.00;;;7.20;99.90;;;;;;6276764;22;20494;-80
2023/01/26 15:14:44;;;;;;;11.95;1.70;;;7.20;99.90;;;;;;6251130;22;20456;-79
2023/01/26 15:17:29;;;;;;;11.70;2.00;;;7.20;99.90;;;;;;6276627;22;20012;-78
2023/01/26 15:19:55;;;;;;;12.18;1.60;;;7.20;99.90;;;;;;6278291;22;20030;-79
2023/01/26 15:22:23;;;;;;;16.15;2.20;;;7.20;99.90;;;;;;6276316;22;20008;-79
2023/01/26 15:25:18;;;;;;;17.15;1.80;;;7.10;99.90;;;;;;6276469;22;20012;-76
2023/01/26 15:27:49;;;;;;;13.90;1.85;;;7.10;99.90;;;;;;6264084;22;20012;-79
2023/01/26 15:30:16;;;;;;;16.40;2.67;;;7.10;99.90;;;;;;6278338;22;20015;-76
2023/01/26 15:32:42;;;;;;;16.95;2.40;;;7.10;99.90;;;;;;6250657;22;20016;-79
2023/01/26 15:35:23;;;;;;;14.57;1.40;;;7.10;99.90;;;;;;6276530;22;20015;-78
2023/01/26 15:37:59;;;;;;;19.33;2.00;;;7.10;99.90;;;;;;6277897;22;20015;-77
2023/01/26 15:40:24;;;;;;;14.98;1.85;;;7.10;99.90;;;;;;6278049;22;20035;-79
2023/01/26 15:42:50;;;;;;;17.52;2.10;;;7.00;99.90;;;;;;6276540;22;20433;-78
2023/01/26 15:45:24;;;;;;;13.50;1.83;;;7.00;99.90;;;;;;6276305;22;20020;-79
2023/01/26 15:47:50;;;;;;;18.85;2.90;;;7.00;99.90;;;;;;6250990;22;20008;-78
2023/01/26 15:50:17;;;;;;;18.40;2.00;;;7.00;99.90;;;;;;6278757;22;20438;-79
2023/01/26 15:52:43;;;;;;;13.45;2.40;;;7.00;99.90;;;;;;6276379;22;20334;-76
2023/01/26 15:55:22;;;;;;;13.73;2.00;;;7.00;99.90;;;;;;6276386;22;20020;-78
2023/01/26 15:57:48;;;;;;;17.90;1.92;;;6.90;99.90;;;;;;6277646;22;20016;-78
2023/01/26 16:00:14;;;;;;;17.50;2.83;;;6.90;99.90;;;;;;6276746;22;20058;-77
2023/01/26 16:02:39;;;;;;;18.55;2.55;;;6.90;99.90;;;;;;6275900;22;20438;-78
2023/01/26 16:05:09;;;;;;;15.27;1.95;;;6.90;99.90;;;;;;6276243;22;20069;-78
2023/01/26 16:07:34;;;;;;;18.25;3.22;;;6.90;99.90;;;;;;6278091;22;20008;-79
2023/01/26 16:10:00;;;;;;;16.27;1.73;;;6.90;99.90;;;;;;6250858;22;20003;-78
2023/01/26 16:12:26;;;;;;;16.75;2.58;;;6.90;99.90;;;;;;6276254;22;20390;-79
2023/01/26 16:14:51;;;;;;;18.90;3.50;;;6.90;99.90;;;;;;6251617;22;20483;-79
2023/01/26 16:17:17;;;;;;;13.02;2.10;;;6.90;99.90;;;;;;6276396;22;20012;-76
2023/01/26 16:19:44;;;;;;;17.75;2.72;;;6.80;99.90;;;;;;6275993;22;20012;-79
2023/01/26 16:22:11;;;;;;;16.50;2.30;;;6.80;99.90;;;;;;6250567;22;20087;-77
2023/01/26 16:24:38;;;;;;;16.73;2.50;;;6.80;99.90;;;;;;6250021;22;20437;-76
2023/01/26 16:27:05;;;;;;;20.20;2.83;;;6.80;99.90;;;;;;6277186;22;20011;-82
2023/01/26 16:29:31;;;;;;;15.02;2.65;;;6.80;99.90;;;;;;6251223;22;20090;-80
2023/01/26 16:31:59;;;;;;;15.05;3.30;;;6.70;99.90;;;;;;6276283;22;20033;-78
2023/01/26 16:34:25;;;;;;;17.08;2.85;;;6.70;99.90;;;;;;6277011;22;20028;-80
2023/01/26 16:36:50;;;;;;;18.40;2.13;;;6.60;99.90;;;;;;6276342;22;20024;-80
2023/01/26 16:39:16;;;;;;;14.90;2.22;;;6.60;99.90;;;;;;6276554;22;20023;-81
2023/01/26 16:41:42;;;;;;;19.35;2.33;;;6.60;99.90;;;;;;6250621;22;20386;-79
2023/01/26 16:44:13;;;;;;;12.02;2.05;;;6.60;99.90;;;;;;6251241;22;20012;-80
2023/01/26 16:46:38;;;;;;;17.55;2.50;;;6.60;99.90;;;;;;6276420;22;20012;-78
2023/01/26 16:49:04;;;;;;;21.80;2.60;;;6.50;99.90;;;;;;6276495;22;20061;-80
2023/01/26 16:51:36;;;;;;;15.45;2.40;;;6.50;99.90;;;;;;6276192;22;20338;-76
2023/01/26 16:54:02;;;;;;;19.05;2.80;;;6.50;99.90;;;;;;6276783;22;20012;-78
2023/01/26 16:56:28;;;;;;;26.20;2.72;;;6.50;99.90;;;;;;6276319;22;20095;-79
2023/01/26 16:58:53;;;;;;;13.15;2.55;;;6.50;99.90;;;;;;6276497;22;20504;-78
2023/01/26 17:01:31;;;;;;;13.77;2.25;;;6.50;99.90;;;;;;6276293;22;20445;-78
2023/01/26 17:03:56;;;;;;;14.93;3.25;;;6.50;99.90;;;;;;6276150;22;20074;-79
2023/01/26 17:06:22;;;;;;;16.35;2.10;;;6.50;99.90;;;;;;6276143;22;20011;-78
2023/01/26 17:08:48;;;;;;;17.55;3.10;;;6.40;99.90;;;;;;6276041;22;20012;-79
2023/01/26 17:11:20;;;;;;;27.52;3.10;;;6.40;99.90;;;;;;6276621;22;20058;-78
2023/01/26 17:13:46;;;;;;;19.73;2.50;;;6.40;99.90;;;;;;6276170;22;20043;-78
2023/01/26 17:16:14;;;;;;;21.13;3.05;;;6.40;99.90;;;;;;6278311;22;20019;-80